Vichy/Rolla, Missouri
Current Conditions -  °F | °C
As of 6:53 AM on Monday 20 Oct 2014 (Local Time) from KVIH Reporting Station
Broken Clouds Broken Clouds  
Wind Chill: 50°   Ceiling: 6500
Heat Index: 50°   Visibility: 10mi
Dew Point: 46°   Wind: 8mph
Humidity: 86%   Direction: 230°SW
Pressure: 29.98"   Gusts: NA
Location:  38.12°N, 91.76°W
Report Text: KVIH 201153Z AUTO 23007KT 10SM BKN065 10/08 A2998 RMK AO2 SLP153 T01000078 10111 20094 56004
Loading
Personal Weather Stations






























Interactive Weather Map
Tropical Storm Tracking
New forecast layout! Learn more

10-Day Weather Forecast

Advertisements
Track Severe Weather on mobile